sensor_id;sensor_type;location;lat;lon;timestamp;P1;durP1;ratioP1;P2;durP2;ratioP2
20910;SDS011;10615;42.702;23.314;2024-01-25T00:00:04;44.47;;;25.45;;
20910;SDS011;10615;42.702;23.314;2024-01-25T00:01:06;42.25;;;25.10;;
20910;SDS011;10615;42.702;23.314;2024-01-25T00:02:06;43.92;;;25.98;;
20910;SDS011;10615;42.702;23.314;2024-01-25T00:03:07;39.70;;;25.10;;
20910;SDS011;10615;42.702;23.314;2024-01-25T00:04:09;41.45;;;25.52;;
20910;SDS011;10615;42.702;23.314;2024-01-25T00:05:10;41.42;;;26.02;;
20910;SDS011;10615;42.702;23.314;2024-01-25T00:06:10;41.35;;;25.70;;
20910;SDS011;10615;42.702;23.314;2024-01-25T00:07:11;40.17;;;25.10;;
20910;SDS011;10615;42.702;23.314;2024-01-25T00:08:12;44.67;;;26.23;;
20910;SDS011;10615;42.702;23.314;2024-01-25T00:09:13;43.15;;;26.02;;
20910;SDS011;10615;42.702;23.314;2024-01-25T00:10:15;43.88;;;25.75;;
20910;SDS011;10615;42.702;23.314;2024-01-25T00:11:17;44.78;;;26.70;;
20910;SDS011;10615;42.702;23.314;2024-01-25T00:12:18;41.85;;;26.50;;
20910;SDS011;10615;42.702;23.314;2024-01-25T00:13:18;40.85;;;24.83;;
20910;SDS011;10615;42.702;23.314;2024-01-25T00:14:19;42.40;;;24.40;;
20910;SDS011;10615;42.702;23.314;2024-01-25T00:15:20;36.85;;;22.02;;
20910;SDS011;10615;42.702;23.314;2024-01-25T00:16:20;39.30;;;21.38;;
20910;SDS011;10615;42.702;23.314;2024-01-25T00:17:21;35.38;;;20.88;;
20910;SDS011;10615;42.702;23.314;2024-01-25T00:18:22;33.35;;;20.90;;
20910;SDS011;10615;42.702;23.314;2024-01-25T00:19:23;28.88;;;18.55;;
20910;SDS011;10615;42.702;23.314;2024-01-25T00:20:24;29.33;;;18.52;;
20910;SDS011;10615;42.702;23.314;2024-01-25T00:21:24;29.55;;;17.90;;
20910;SDS011;10615;42.702;23.314;2024-01-25T00:22:25;27.88;;;16.27;;
20910;SDS011;10615;42.702;23.314;2024-01-25T00:23:26;31.05;;;18.33;;
20910;SDS011;10615;42.702;23.314;2024-01-25T00:24:27;26.00;;;16.52;;
20910;SDS011;10615;42.702;23.314;2024-01-25T00:25:28;26.30;;;15.98;;
20910;SDS011;10615;42.702;23.314;2024-01-25T00:26:28;24.75;;;15.48;;
20910;SDS011;10615;42.702;23.314;2024-01-25T00:27:29;23.10;;;15.00;;
20910;SDS011;10615;42.702;23.314;2024-01-25T00:28:30;24.30;;;15.43;;
20910;SDS011;10615;42.702;23.314;2024-01-25T00:29:31;24.08;;;14.90;;
20910;SDS011;10615;42.702;23.314;2024-01-25T00:30:34;26.77;;;15.65;;
20910;SDS011;10615;42.702;23.314;2024-01-25T00:31:34;27.50;;;16.58;;
20910;SDS011;10615;42.702;23.314;2024-01-25T00:32:35;29.90;;;16.50;;
20910;SDS011;10615;42.702;23.314;2024-01-25T00:33:36;24.70;;;16.38;;
20910;SDS011;10615;42.702;23.314;2024-01-25T00:34:37;31.92;;;17.75;;
20910;SDS011;10615;42.702;23.314;2024-01-25T00:35:38;30.35;;;18.15;;
20910;SDS011;10615;42.702;23.314;2024-01-25T00:36:39;31.95;;;18.63;;
20910;SDS011;10615;42.702;23.314;2024-01-25T00:37:40;31.17;;;18.27;;
20910;SDS011;10615;42.702;23.314;2024-01-25T00:38:41;30.05;;;18.02;;
20910;SDS011;10615;42.702;23.314;2024-01-25T00:39:42;26.88;;;17.50;;
20910;SDS011;10615;42.702;23.314;2024-01-25T00:40:43;32.92;;;19.05;;
20910;SDS011;10615;42.702;23.314;2024-01-25T00:41:44;31.95;;;18.45;;
20910;SDS011;10615;42.702;23.314;2024-01-25T00:42:49;30.60;;;18.40;;
20910;SDS011;10615;42.702;23.314;2024-01-25T00:43:54;28.42;;;17.83;;
20910;SDS011;10615;42.702;23.314;2024-01-25T00:44:54;30.92;;;17.67;;
20910;SDS011;10615;42.702;23.314;2024-01-25T00:45:55;29.63;;;17.70;;
20910;SDS011;10615;42.702;23.314;2024-01-25T00:46:56;30.52;;;17.88;;
20910;SDS011;10615;42.702;23.314;2024-01-25T00:47:57;31.92;;;18.45;;
20910;SDS011;10615;42.702;23.314;2024-01-25T00:48:59;33.50;;;19.15;;
20910;SDS011;10615;42.702;23.314;2024-01-25T00:50:00;35.05;;;19.63;;
20910;SDS011;10615;42.702;23.314;2024-01-25T00:51:01;31.00;;;19.27;;
20910;SDS011;10615;42.702;23.314;2024-01-25T00:52:05;30.70;;;18.63;;
20910;SDS011;10615;42.702;23.314;2024-01-25T00:53:06;30.45;;;18.00;;
20910;SDS011;10615;42.702;23.314;2024-01-25T00:54:07;26.13;;;16.60;;
20910;SDS011;10615;42.702;23.314;2024-01-25T00:55:09;25.38;;;16.42;;
20910;SDS011;10615;42.702;23.314;2024-01-25T00:56:10;26.73;;;16.33;;
20910;SDS011;10615;42.702;23.314;2024-01-25T00:57:12;26.58;;;15.70;;
20910;SDS011;10615;42.702;23.314;2024-01-25T00:58:13;24.58;;;15.80;;
20910;SDS011;10615;42.702;23.314;2024-01-25T00:59:14;24.70;;;14.88;;
20910;SDS011;10615;42.702;23.314;2024-01-25T01:00:15;26.05;;;15.55;;
20910;SDS011;10615;42.702;23.314;2024-01-25T01:01:16;26.73;;;15.40;;
20910;SDS011;10615;42.702;23.314;2024-01-25T01:02:21;22.85;;;14.23;;
20910;SDS011;10615;42.702;23.314;2024-01-25T01:03:22;24.75;;;14.88;;
20910;SDS011;10615;42.702;23.314;2024-01-25T01:04:24;22.83;;;14.07;;
20910;SDS011;10615;42.702;23.314;2024-01-25T01:05:25;22.67;;;14.00;;
20910;SDS011;10615;42.702;23.314;2024-01-25T01:06:26;19.90;;;12.52;;
20910;SDS011;10615;42.702;23.314;2024-01-25T01:07:27;22.23;;;11.98;;
20910;SDS011;10615;42.702;23.314;2024-01-25T01:08:29;16.92;;;10.95;;
20910;SDS011;10615;42.702;23.314;2024-01-25T01:09:29;16.45;;;10.55;;
20910;SDS011;10615;42.702;23.314;2024-01-25T01:10:30;15.43;;;10.00;;
20910;SDS011;10615;42.702;23.314;2024-01-25T01:11:31;18.00;;;9.77;;
20910;SDS011;10615;42.702;23.314;2024-01-25T01:12:32;15.05;;;9.93;;
20910;SDS011;10615;42.702;23.314;2024-01-25T01:13:32;13.98;;;8.52;;
20910;SDS011;10615;42.702;23.314;2024-01-25T01:14:33;13.27;;;8.40;;
20910;SDS011;10615;42.702;23.314;2024-01-25T01:15:34;12.65;;;8.40;;
20910;SDS011;10615;42.702;23.314;2024-01-25T01:16:35;12.63;;;8.52;;
20910;SDS011;10615;42.702;23.314;2024-01-25T01:17:36;13.23;;;7.40;;
20910;SDS011;10615;42.702;23.314;2024-01-25T01:18:37;14.02;;;8.75;;
20910;SDS011;10615;42.702;23.314;2024-01-25T01:19:38;12.57;;;7.97;;
20910;SDS011;10615;42.702;23.314;2024-01-25T01:20:39;12.35;;;7.75;;
20910;SDS011;10615;42.702;23.314;2024-01-25T01:21:40;13.13;;;8.38;;
20910;SDS011;10615;42.702;23.314;2024-01-25T01:22:43;14.18;;;8.38;;
20910;SDS011;10615;42.702;23.314;2024-01-25T01:23:44;12.93;;;8.40;;
20910;SDS011;10615;42.702;23.314;2024-01-25T01:24:45;14.82;;;8.57;;
20910;SDS011;10615;42.702;23.314;2024-01-25T01:25:46;15.25;;;9.07;;
20910;SDS011;10615;42.702;23.314;2024-01-25T01:26:46;14.85;;;8.70;;
20910;SDS011;10615;42.702;23.314;2024-01-25T01:27:48;14.55;;;8.98;;
20910;SDS011;10615;42.702;23.314;2024-01-25T01:28:49;15.23;;;8.93;;
20910;SDS011;10615;42.702;23.314;2024-01-25T01:29:50;13.88;;;7.88;;
20910;SDS011;10615;42.702;23.314;2024-01-25T01:30:51;12.18;;;7.65;;
20910;SDS011;10615;42.702;23.314;2024-01-25T01:31:52;12.65;;;7.43;;
20910;SDS011;10615;42.702;23.314;2024-01-25T01:32:53;12.15;;;7.80;;
20910;SDS011;10615;42.702;23.314;2024-01-25T01:33:53;10.63;;;6.85;;
20910;SDS011;10615;42.702;23.314;2024-01-25T01:34:54;13.82;;;7.20;;
20910;SDS011;10615;42.702;23.314;2024-01-25T01:35:55;12.30;;;7.43;;
20910;SDS011;10615;42.702;23.314;2024-01-25T01:36:56;12.43;;;7.28;;
20910;SDS011;10615;42.702;23.314;2024-01-25T01:37:56;10.85;;;6.97;;
20910;SDS011;10615;42.702;23.314;2024-01-25T01:38:57;12.95;;;7.20;;
20910;SDS011;10615;42.702;23.314;2024-01-25T01:39:58;13.05;;;7.22;;
20910;SDS011;10615;42.702;23.314;2024-01-25T01:40:59;9.82;;;7.07;;
20910;SDS011;10615;42.702;23.314;2024-01-25T01:42:00;12.32;;;7.43;;
20910;SDS011;10615;42.702;23.314;2024-01-25T01:43:01;12.73;;;7.40;;
20910;SDS011;10615;42.702;23.314;2024-01-25T01:44:02;12.75;;;7.43;;
20910;SDS011;10615;42.702;23.314;2024-01-25T01:45:03;12.48;;;7.25;;
20910;SDS011;10615;42.702;23.314;2024-01-25T01:46:49;11.15;;;7.35;;
20910;SDS011;10615;42.702;23.314;2024-01-25T01:47:31;11.27;;;7.43;;
20910;SDS011;10615;42.702;23.314;2024-01-25T01:48:32;11.25;;;7.50;;
20910;SDS011;10615;42.702;23.314;2024-01-25T01:49:33;10.95;;;6.97;;
20910;SDS011;10615;42.702;23.314;2024-01-25T01:50:36;14.50;;;7.70;;
20910;SDS011;10615;42.702;23.314;2024-01-25T01:51:37;12.98;;;8.23;;
20910;SDS011;10615;42.702;23.314;2024-01-25T01:52:38;12.13;;;8.07;;
20910;SDS011;10615;42.702;23.314;2024-01-25T01:53:40;15.30;;;7.93;;
20910;SDS011;10615;42.702;23.314;2024-01-25T01:54:40;12.18;;;7.60;;
20910;SDS011;10615;42.702;23.314;2024-01-25T01:55:41;14.77;;;8.38;;
20910;SDS011;10615;42.702;23.314;2024-01-25T01:56:42;14.68;;;8.65;;
20910;SDS011;10615;42.702;23.314;2024-01-25T01:57:45;15.55;;;9.52;;
20910;SDS011;10615;42.702;23.314;2024-01-25T01:58:47;16.13;;;9.73;;
20910;SDS011;10615;42.702;23.314;2024-01-25T01:59:48;15.57;;;9.57;;
20910;SDS011;10615;42.702;23.314;2024-01-25T02:00:50;18.67;;;10.07;;
20910;SDS011;10615;42.702;23.314;2024-01-25T02:01:52;17.08;;;10.40;;
20910;SDS011;10615;42.702;23.314;2024-01-25T02:02:53;18.42;;;9.35;;
20910;SDS011;10615;42.702;23.314;2024-01-25T02:03:54;16.67;;;10.40;;
20910;SDS011;10615;42.702;23.314;2024-01-25T02:04:55;17.00;;;10.75;;
20910;SDS011;10615;42.702;23.314;2024-01-25T02:05:56;16.65;;;10.63;;
20910;SDS011;10615;42.702;23.314;2024-01-25T02:07:02;16.40;;;10.75;;
20910;SDS011;10615;42.702;23.314;2024-01-25T02:08:04;15.80;;;10.57;;
20910;SDS011;10615;42.702;23.314;2024-01-25T02:09:06;23.00;;;10.82;;
20910;SDS011;10615;42.702;23.314;2024-01-25T02:10:07;17.17;;;10.68;;
20910;SDS011;10615;42.702;23.314;2024-01-25T02:11:11;15.40;;;10.57;;
20910;SDS011;10615;42.702;23.314;2024-01-25T02:12:15;19.08;;;10.85;;
20910;SDS011;10615;42.702;23.314;2024-01-25T02:13:17;17.02;;;10.52;;
20910;SDS011;10615;42.702;23.314;2024-01-25T02:14:18;16.50;;;10.35;;
20910;SDS011;10615;42.702;23.314;2024-01-25T02:15:18;18.92;;;11.10;;
20910;SDS011;10615;42.702;23.314;2024-01-25T02:16:20;18.85;;;11.02;;
20910;SDS011;10615;42.702;23.314;2024-01-25T02:17:20;17.02;;;10.85;;
20910;SDS011;10615;42.702;23.314;2024-01-25T02:18:21;17.40;;;10.98;;
20910;SDS011;10615;42.702;23.314;2024-01-25T02:19:22;18.48;;;10.95;;
20910;SDS011;10615;42.702;23.314;2024-01-25T02:20:23;18.08;;;10.90;;
20910;SDS011;10615;42.702;23.314;2024-01-25T02:21:24;16.17;;;10.88;;
20910;SDS011;10615;42.702;23.314;2024-01-25T02:22:25;17.30;;;10.85;;
20910;SDS011;10615;42.702;23.314;2024-01-25T02:23:26;18.58;;;10.80;;
20910;SDS011;10615;42.702;23.314;2024-01-25T02:24:27;17.83;;;10.90;;
20910;SDS011;10615;42.702;23.314;2024-01-25T02:25:27;17.33;;;10.60;;
20910;SDS011;10615;42.702;23.314;2024-01-25T02:26:28;19.80;;;11.05;;
20910;SDS011;10615;42.702;23.314;2024-01-25T02:27:29;17.02;;;10.52;;
20910;SDS011;10615;42.702;23.314;2024-01-25T02:28:29;17.75;;;10.88;;
20910;SDS011;10615;42.702;23.314;2024-01-25T02:29:30;19.45;;;10.85;;
20910;SDS011;10615;42.702;23.314;2024-01-25T02:30:31;16.90;;;11.02;;
20910;SDS011;10615;42.702;23.314;2024-01-25T02:31:32;17.27;;;10.63;;
20910;SDS011;10615;42.702;23.314;2024-01-25T02:32:33;18.75;;;10.32;;
20910;SDS011;10615;42.702;23.314;2024-01-25T02:33:34;17.45;;;11.27;;
20910;SDS011;10615;42.702;23.314;2024-01-25T02:34:34;15.43;;;10.77;;
20910;SDS011;10615;42.702;23.314;2024-01-25T02:35:36;18.20;;;11.27;;
20910;SDS011;10615;42.702;23.314;2024-01-25T02:36:37;18.30;;;11.27;;
20910;SDS011;10615;42.702;23.314;2024-01-25T02:37:38;13.77;;;8.93;;
20910;SDS011;10615;42.702;23.314;2024-01-25T02:38:39;14.73;;;9.18;;
20910;SDS011;10615;42.702;23.314;2024-01-25T02:39:39;16.70;;;8.75;;
20910;SDS011;10615;42.702;23.314;2024-01-25T02:40:40;11.15;;;6.65;;
20910;SDS011;10615;42.702;23.314;2024-01-25T02:41:41;7.45;;;5.22;;
20910;SDS011;10615;42.702;23.314;2024-01-25T02:42:42;6.55;;;5.03;;
20910;SDS011;10615;42.702;23.314;2024-01-25T02:43:42;9.18;;;5.43;;
20910;SDS011;10615;42.702;23.314;2024-01-25T02:44:43;7.72;;;4.97;;
20910;SDS011;10615;42.702;23.314;2024-01-25T02:45:44;8.57;;;4.68;;
20910;SDS011;10615;42.702;23.314;2024-01-25T02:46:45;6.55;;;4.55;;
20910;SDS011;10615;42.702;23.314;2024-01-25T02:47:47;8.75;;;4.72;;
20910;SDS011;10615;42.702;23.314;2024-01-25T02:48:47;6.43;;;3.97;;
20910;SDS011;10615;42.702;23.314;2024-01-25T02:49:48;7.25;;;4.25;;
20910;SDS011;10615;42.702;23.314;2024-01-25T02:50:49;5.05;;;3.50;;
20910;SDS011;10615;42.702;23.314;2024-01-25T02:51:50;9.73;;;4.28;;
20910;SDS011;10615;42.702;23.314;2024-01-25T02:52:51;5.43;;;3.53;;
20910;SDS011;10615;42.702;23.314;2024-01-25T02:53:52;7.85;;;3.65;;
20910;SDS011;10615;42.702;23.314;2024-01-25T02:54:53;5.78;;;3.55;;
20910;SDS011;10615;42.702;23.314;2024-01-25T02:55:53;5.47;;;3.33;;
20910;SDS011;10615;42.702;23.314;2024-01-25T02:56:54;5.15;;;3.63;;
20910;SDS011;10615;42.702;23.314;2024-01-25T02:57:55;6.20;;;3.55;;
20910;SDS011;10615;42.702;23.314;2024-01-25T02:58:56;6.85;;;4.25;;
20910;SDS011;10615;42.702;23.314;2024-01-25T02:59:56;5.45;;;3.47;;
20910;SDS011;10615;42.702;23.314;2024-01-25T03:00:57;6.25;;;3.50;;
20910;SDS011;10615;42.702;23.314;2024-01-25T03:01:58;5.95;;;4.00;;
20910;SDS011;10615;42.702;23.314;2024-01-25T03:02:59;5.82;;;3.03;;
20910;SDS011;10615;42.702;23.314;2024-01-25T03:03:59;5.15;;;2.78;;
20910;SDS011;10615;42.702;23.314;2024-01-25T03:05:00;5.15;;;2.60;;
20910;SDS011;10615;42.702;23.314;2024-01-25T03:06:02;4.80;;;2.83;;
20910;SDS011;10615;42.702;23.314;2024-01-25T03:07:03;4.60;;;2.45;;
20910;SDS011;10615;42.702;23.314;2024-01-25T03:08:04;3.72;;;2.50;;
20910;SDS011;10615;42.702;23.314;2024-01-25T03:09:04;4.45;;;2.20;;
20910;SDS011;10615;42.702;23.314;2024-01-25T03:10:05;4.28;;;2.10;;
20910;SDS011;10615;42.702;23.314;2024-01-25T03:11:07;3.72;;;2.10;;
20910;SDS011;10615;42.702;23.314;2024-01-25T03:12:07;4.30;;;1.98;;
20910;SDS011;10615;42.702;23.314;2024-01-25T03:13:08;4.10;;;2.03;;
20910;SDS011;10615;42.702;23.314;2024-01-25T03:14:09;3.08;;;1.52;;
20910;SDS011;10615;42.702;23.314;2024-01-25T03:15:10;2.40;;;1.70;;
20910;SDS011;10615;42.702;23.314;2024-01-25T03:16:12;3.45;;;1.75;;
20910;SDS011;10615;42.702;23.314;2024-01-25T03:17:12;2.92;;;1.70;;
20910;SDS011;10615;42.702;23.314;2024-01-25T03:18:13;2.67;;;1.60;;
20910;SDS011;10615;42.702;23.314;2024-01-25T03:19:14;3.03;;;1.70;;
20910;SDS011;10615;42.702;23.314;2024-01-25T03:20:15;3.40;;;1.42;;
20910;SDS011;10615;42.702;23.314;2024-01-25T03:21:15;3.53;;;1.45;;
20910;SDS011;10615;42.702;23.314;2024-01-25T03:22:16;2.22;;;1.13;;
20910;SDS011;10615;42.702;23.314;2024-01-25T03:23:17;3.20;;;1.60;;
20910;SDS011;10615;42.702;23.314;2024-01-25T03:24:17;2.42;;;1.48;;
20910;SDS011;10615;42.702;23.314;2024-01-25T03:25:18;3.03;;;1.60;;
20910;SDS011;10615;42.702;23.314;2024-01-25T03:26:19;3.03;;;1.30;;
20910;SDS011;10615;42.702;23.314;2024-01-25T03:27:20;3.17;;;1.30;;
20910;SDS011;10615;42.702;23.314;2024-01-25T03:28:20;1.40;;;1.15;;
20910;SDS011;10615;42.702;23.314;2024-01-25T03:29:21;3.28;;;1.20;;
20910;SDS011;10615;42.702;23.314;2024-01-25T03:30:22;2.00;;;1.35;;
20910;SDS011;10615;42.702;23.314;2024-01-25T03:31:23;2.75;;;1.42;;
20910;SDS011;10615;42.702;23.314;2024-01-25T03:32:23;1.35;;;1.00;;
20910;SDS011;10615;42.702;23.314;2024-01-25T03:33:24;2.05;;;1.15;;
20910;SDS011;10615;42.702;23.314;2024-01-25T03:34:26;2.00;;;1.33;;
20910;SDS011;10615;42.702;23.314;2024-01-25T03:35:27;2.38;;;1.25;;
20910;SDS011;10615;42.702;23.314;2024-01-25T03:36:27;2.92;;;1.20;;
20910;SDS011;10615;42.702;23.314;2024-01-25T03:37:28;2.17;;;1.10;;
20910;SDS011;10615;42.702;23.314;2024-01-25T03:38:29;1.98;;;1.30;;
20910;SDS011;10615;42.702;23.314;2024-01-25T03:39:30;1.50;;;1.20;;
20910;SDS011;10615;42.702;23.314;2024-01-25T03:40:31;2.08;;;1.00;;
20910;SDS011;10615;42.702;23.314;2024-01-25T03:41:31;2.97;;;1.40;;
20910;SDS011;10615;42.702;23.314;2024-01-25T03:42:32;1.35;;;1.02;;
20910;SDS011;10615;42.702;23.314;2024-01-25T03:43:33;2.67;;;1.10;;
20910;SDS011;10615;42.702;23.314;2024-01-25T03:44:34;2.45;;;1.13;;
20910;SDS011;10615;42.702;23.314;2024-01-25T03:45:35;1.67;;;1.17;;
20910;SDS011;10615;42.702;23.314;2024-01-25T03:46:35;2.72;;;1.23;;
20910;SDS011;10615;42.702;23.314;2024-01-25T03:47:36;2.75;;;1.38;;
20910;SDS011;10615;42.702;23.314;2024-01-25T03:48:37;2.08;;;1.15;;
20910;SDS011;10615;42.702;23.314;2024-01-25T03:49:38;1.73;;;1.25;;
20910;SDS011;10615;42.702;23.314;2024-01-25T03:50:39;2.40;;;1.30;;
20910;SDS011;10615;42.702;23.314;2024-01-25T03:51:39;2.72;;;1.23;;
20910;SDS011;10615;42.702;23.314;2024-01-25T03:52:40;2.63;;;1.42;;
20910;SDS011;10615;42.702;23.314;2024-01-25T03:53:41;2.65;;;1.30;;
20910;SDS011;10615;42.702;23.314;2024-01-25T03:54:42;2.28;;;1.30;;
20910;SDS011;10615;42.702;23.314;2024-01-25T03:55:43;3.47;;;1.40;;
20910;SDS011;10615;42.702;23.314;2024-01-25T03:56:44;1.40;;;1.17;;
20910;SDS011;10615;42.702;23.314;2024-01-25T03:57:45;1.95;;;1.20;;
20910;SDS011;10615;42.702;23.314;2024-01-25T03:58:45;2.78;;;1.35;;
20910;SDS011;10615;42.702;23.314;2024-01-25T03:59:46;2.22;;;1.20;;
20910;SDS011;10615;42.702;23.314;2024-01-25T04:00:47;2.42;;;1.42;;
20910;SDS011;10615;42.702;23.314;2024-01-25T04:01:48;4.90;;;1.20;;
20910;SDS011;10615;42.702;23.314;2024-01-25T04:02:49;2.17;;;1.30;;
20910;SDS011;10615;42.702;23.314;2024-01-25T04:03:50;3.67;;;1.83;;
20910;SDS011;10615;42.702;23.314;2024-01-25T04:04:51;2.90;;;1.50;;
20910;SDS011;10615;42.702;23.314;2024-01-25T04:05:51;1.67;;;1.17;;
20910;SDS011;10615;42.702;23.314;2024-01-25T04:06:52;3.03;;;1.65;;
20910;SDS011;10615;42.702;23.314;2024-01-25T04:07:53;2.15;;;1.48;;
20910;SDS011;10615;42.702;23.314;2024-01-25T04:08:54;3.35;;;1.40;;
20910;SDS011;10615;42.702;23.314;2024-01-25T04:09:54;2.25;;;1.23;;
20910;SDS011;10615;42.702;23.314;2024-01-25T04:10:55;4.38;;;1.40;;
20910;SDS011;10615;42.702;23.314;2024-01-25T04:11:56;1.98;;;1.20;;
20910;SDS011;10615;42.702;23.314;2024-01-25T04:12:57;3.47;;;1.42;;
20910;SDS011;10615;42.702;23.314;2024-01-25T04:14:00;3.30;;;1.55;;
20910;SDS011;10615;42.702;23.314;2024-01-25T04:15:01;3.10;;;1.90;;
20910;SDS011;10615;42.702;23.314;2024-01-25T04:16:01;6.65;;;2.55;;
20910;SDS011;10615;42.702;23.314;2024-01-25T04:17:02;4.90;;;2.75;;
20910;SDS011;10615;42.702;23.314;2024-01-25T04:18:03;2.75;;;2.03;;
20910;SDS011;10615;42.702;23.314;2024-01-25T04:19:04;7.28;;;2.95;;
20910;SDS011;10615;42.702;23.314;2024-01-25T04:20:05;4.72;;;2.83;;
20910;SDS011;10615;42.702;23.314;2024-01-25T04:21:07;5.38;;;2.92;;
20910;SDS011;10615;42.702;23.314;2024-01-25T04:22:09;6.50;;;3.28;;
20910;SDS011;10615;42.702;23.314;2024-01-25T04:23:10;6.70;;;3.20;;
20910;SDS011;10615;42.702;23.314;2024-01-25T04:24:11;7.57;;;3.38;;
20910;SDS011;10615;42.702;23.314;2024-01-25T04:25:11;6.78;;;3.50;;
20910;SDS011;10615;42.702;23.314;2024-01-25T04:26:12;4.50;;;2.85;;
20910;SDS011;10615;42.702;23.314;2024-01-25T04:27:14;5.53;;;3.00;;
20910;SDS011;10615;42.702;23.314;2024-01-25T04:28:15;5.43;;;3.17;;
20910;SDS011;10615;42.702;23.314;2024-01-25T04:29:16;6.20;;;3.70;;
20910;SDS011;10615;42.702;23.314;2024-01-25T04:30:16;6.20;;;3.20;;
20910;SDS011;10615;42.702;23.314;2024-01-25T04:31:18;7.40;;;3.38;;
20910;SDS011;10615;42.702;23.314;2024-01-25T04:32:19;5.85;;;3.22;;
20910;SDS011;10615;42.702;23.314;2024-01-25T04:33:20;6.68;;;3.00;;
20910;SDS011;10615;42.702;23.314;2024-01-25T04:34:21;5.95;;;3.53;;
20910;SDS011;10615;42.702;23.314;2024-01-25T04:35:21;7.53;;;3.42;;
20910;SDS011;10615;42.702;23.314;2024-01-25T04:36:22;5.22;;;2.90;;
20910;SDS011;10615;42.702;23.314;2024-01-25T04:37:23;5.50;;;3.08;;
20910;SDS011;10615;42.702;23.314;2024-01-25T04:38:24;5.53;;;2.75;;
20910;SDS011;10615;42.702;23.314;2024-01-25T04:39:24;7.07;;;3.30;;
20910;SDS011;10615;42.702;23.314;2024-01-25T04:40:25;6.05;;;3.15;;
20910;SDS011;10615;42.702;23.314;2024-01-25T04:41:26;6.22;;;3.28;;
20910;SDS011;10615;42.702;23.314;2024-01-25T04:42:27;6.75;;;3.50;;
20910;SDS011;10615;42.702;23.314;2024-01-25T04:43:27;5.78;;;3.80;;
20910;SDS011;10615;42.702;23.314;2024-01-25T04:44:28;5.85;;;3.85;;
20910;SDS011;10615;42.702;23.314;2024-01-25T04:45:29;7.70;;;3.92;;
20910;SDS011;10615;42.702;23.314;2024-01-25T04:46:30;7.28;;;4.18;;
20910;SDS011;10615;42.702;23.314;2024-01-25T04:47:37;8.68;;;3.97;;
20910;SDS011;10615;42.702;23.314;2024-01-25T04:48:39;7.30;;;3.47;;
20910;SDS011;10615;42.702;23.314;2024-01-25T04:49:40;6.82;;;3.80;;
20910;SDS011;10615;42.702;23.314;2024-01-25T04:50:41;5.47;;;3.35;;
20910;SDS011;10615;42.702;23.314;2024-01-25T04:51:42;6.07;;;3.20;;
20910;SDS011;10615;42.702;23.314;2024-01-25T04:52:42;5.32;;;3.22;;
20910;SDS011;10615;42.702;23.314;2024-01-25T04:53:43;5.03;;;3.08;;
20910;SDS011;10615;42.702;23.314;2024-01-25T04:54:44;5.38;;;3.38;;
20910;SDS011;10615;42.702;23.314;2024-01-25T04:55:45;5.72;;;3.20;;
20910;SDS011;10615;42.702;23.314;2024-01-25T04:56:45;5.15;;;3.20;;
20910;SDS011;10615;42.702;23.314;2024-01-25T04:57:46;5.10;;;3.15;;
20910;SDS011;10615;42.702;23.314;2024-01-25T04:58:48;4.47;;;2.88;;
20910;SDS011;10615;42.702;23.314;2024-01-25T04:59:48;5.53;;;3.30;;
20910;SDS011;10615;42.702;23.314;2024-01-25T05:00:49;6.32;;;3.10;;
20910;SDS011;10615;42.702;23.314;2024-01-25T05:01:50;5.30;;;3.40;;
20910;SDS011;10615;42.702;23.314;2024-01-25T05:02:54;5.60;;;3.13;;
20910;SDS011;10615;42.702;23.314;2024-01-25T05:03:54;5.63;;;3.15;;
20910;SDS011;10615;42.702;23.314;2024-01-25T05:04:55;5.80;;;4.03;;
20910;SDS011;10615;42.702;23.314;2024-01-25T05:05:56;5.93;;;3.25;;
20910;SDS011;10615;42.702;23.314;2024-01-25T05:06:57;5.57;;;3.30;;
20910;SDS011;10615;42.702;23.314;2024-01-25T05:07:57;5.22;;;3.55;;
20910;SDS011;10615;42.702;23.314;2024-01-25T05:08:58;6.82;;;3.70;;
20910;SDS011;10615;42.702;23.314;2024-01-25T05:09:59;7.88;;;3.58;;
20910;SDS011;10615;42.702;23.314;2024-01-25T05:11:00;4.65;;;3.00;;
20910;SDS011;10615;42.702;23.314;2024-01-25T05:12:00;6.30;;;3.20;;
20910;SDS011;10615;42.702;23.314;2024-01-25T05:13:02;5.53;;;3.35;;
20910;SDS011;10615;42.702;23.314;2024-01-25T05:14:03;5.82;;;3.75;;
20910;SDS011;10615;42.702;23.314;2024-01-25T05:15:04;5.88;;;3.42;;
20910;SDS011;10615;42.702;23.314;2024-01-25T05:16:05;4.93;;;3.20;;
20910;SDS011;10615;42.702;23.314;2024-01-25T05:17:05;6.32;;;3.20;;
20910;SDS011;10615;42.702;23.314;2024-01-25T05:18:06;4.90;;;3.00;;
20910;SDS011;10615;42.702;23.314;2024-01-25T05:19:07;4.75;;;3.00;;
20910;SDS011;10615;42.702;23.314;2024-01-25T05:20:08;4.30;;;2.90;;
20910;SDS011;10615;42.702;23.314;2024-01-25T05:21:09;9.45;;;3.78;;
20910;SDS011;10615;42.702;23.314;2024-01-25T05:22:10;5.53;;;3.00;;
20910;SDS011;10615;42.702;23.314;2024-01-25T05:23:10;4.75;;;3.30;;
20910;SDS011;10615;42.702;23.314;2024-01-25T05:24:11;5.88;;;3.08;;
20910;SDS011;10615;42.702;23.314;2024-01-25T05:25:12;5.28;;;3.20;;
20910;SDS011;10615;42.702;23.314;2024-01-25T05:26:13;5.25;;;2.65;;
20910;SDS011;10615;42.702;23.314;2024-01-25T05:27:13;7.00;;;3.10;;
20910;SDS011;10615;42.702;23.314;2024-01-25T05:28:14;5.55;;;3.03;;
20910;SDS011;10615;42.702;23.314;2024-01-25T05:29:15;4.78;;;2.75;;
20910;SDS011;10615;42.702;23.314;2024-01-25T05:30:16;5.40;;;2.90;;
20910;SDS011;10615;42.702;23.314;2024-01-25T05:31:17;5.35;;;2.90;;
20910;SDS011;10615;42.702;23.314;2024-01-25T05:32:18;4.47;;;2.97;;
20910;SDS011;10615;42.702;23.314;2024-01-25T05:33:21;6.00;;;3.40;;
20910;SDS011;10615;42.702;23.314;2024-01-25T05:34:22;5.13;;;3.08;;
20910;SDS011;10615;42.702;23.314;2024-01-25T05:35:23;5.88;;;2.67;;
20910;SDS011;10615;42.702;23.314;2024-01-25T05:36:24;6.18;;;3.38;;
20910;SDS011;10615;42.702;23.314;2024-01-25T05:37:24;5.35;;;2.88;;
20910;SDS011;10615;42.702;23.314;2024-01-25T05:38:25;5.38;;;3.20;;
20910;SDS011;10615;42.702;23.314;2024-01-25T05:39:26;5.63;;;2.83;;
20910;SDS011;10615;42.702;23.314;2024-01-25T05:40:27;5.68;;;3.25;;
20910;SDS011;10615;42.702;23.314;2024-01-25T05:41:28;5.30;;;2.60;;
20910;SDS011;10615;42.702;23.314;2024-01-25T05:42:28;5.88;;;2.83;;
20910;SDS011;10615;42.702;23.314;2024-01-25T05:43:29;5.18;;;2.78;;
20910;SDS011;10615;42.702;23.314;2024-01-25T05:44:30;5.78;;;3.70;;
20910;SDS011;10615;42.702;23.314;2024-01-25T05:45:31;4.75;;;2.70;;
20910;SDS011;10615;42.702;23.314;2024-01-25T05:46:31;4.95;;;2.80;;
20910;SDS011;10615;42.702;23.314;2024-01-25T05:47:32;4.45;;;2.42;;
20910;SDS011;10615;42.702;23.314;2024-01-25T05:48:34;5.20;;;2.50;;
20910;SDS011;10615;42.702;23.314;2024-01-25T05:49:35;4.35;;;2.28;;
20910;SDS011;10615;42.702;23.314;2024-01-25T05:50:36;4.20;;;2.58;;
20910;SDS011;10615;42.702;23.314;2024-01-25T05:51:36;4.38;;;2.28;;
20910;SDS011;10615;42.702;23.314;2024-01-25T05:52:37;4.22;;;2.20;;
20910;SDS011;10615;42.702;23.314;2024-01-25T05:53:38;4.60;;;2.10;;
20910;SDS011;10615;42.702;23.314;2024-01-25T05:54:39;5.80;;;2.35;;
20910;SDS011;10615;42.702;23.314;2024-01-25T05:55:40;5.38;;;2.55;;
20910;SDS011;10615;42.702;23.314;2024-01-25T05:56:40;6.30;;;2.55;;
20910;SDS011;10615;42.702;23.314;2024-01-25T05:57:41;5.93;;;2.60;;
20910;SDS011;10615;42.702;23.314;2024-01-25T05:58:44;5.22;;;2.30;;